createdAt,value
2023-04-29T00:01:32.282Z,99.90
2023-04-29T00:03:59.276Z,99.90
2023-04-29T00:06:26.562Z,99.90
2023-04-29T00:08:53.392Z,99.90
2023-04-29T00:11:20.524Z,99.90
2023-04-29T00:13:47.345Z,99.90
2023-04-29T00:16:14.189Z,99.90
2023-04-29T00:18:41.174Z,99.90
2023-04-29T00:21:08.031Z,99.90
2023-04-29T00:23:35.385Z,99.90
2023-04-29T00:26:02.606Z,99.90
2023-04-29T00:28:29.621Z,99.90
2023-04-29T00:30:57.185Z,99.90
2023-04-29T00:33:24.307Z,99.90
2023-04-29T00:35:51.370Z,99.90
2023-04-29T00:38:25.102Z,99.90
2023-04-29T00:40:52.352Z,99.90
2023-04-29T00:43:19.172Z,99.90
2023-04-29T00:45:47.076Z,99.90
2023-04-29T00:48:15.310Z,99.90
2023-04-29T00:50:42.318Z,99.90
2023-04-29T00:53:12.903Z,99.90
2023-04-29T00:55:41.624Z,99.90
2023-04-29T00:58:10.477Z,99.90
2023-04-29T01:00:38.548Z,99.90
2023-04-29T01:03:06.054Z,99.90
2023-04-29T01:05:33.981Z,99.90
2023-04-29T01:08:24.215Z,99.90
2023-04-29T01:11:11.045Z,99.90
2023-04-29T01:13:50.183Z,99.90
2023-04-29T01:16:25.357Z,99.90
2023-04-29T01:18:59.024Z,99.90
2023-04-29T01:21:26.227Z,99.90
2023-04-29T01:23:56.282Z,99.90
2023-04-29T01:26:25.894Z,99.90
2023-04-29T01:29:16.666Z,99.90
2023-04-29T01:32:04.992Z,99.90
2023-04-29T01:35:00.803Z,99.90
2023-04-29T01:37:57.786Z,99.90
2023-04-29T01:40:30.373Z,99.90
2023-04-29T01:43:01.695Z,99.90
2023-04-29T01:45:30.088Z,99.90
2023-04-29T01:47:58.779Z,99.90
2023-04-29T01:50:25.988Z,99.90
2023-04-29T01:52:52.932Z,99.90
2023-04-29T01:55:19.959Z,99.90
2023-04-29T01:57:46.930Z,99.90
2023-04-29T02:00:13.808Z,99.90
2023-04-29T02:02:41.045Z,99.90
2023-04-29T02:05:09.956Z,99.90
2023-04-29T02:07:38.880Z,99.90
2023-04-29T02:10:07.321Z,99.90
2023-04-29T02:12:34.661Z,99.90
2023-04-29T02:15:02.584Z,99.90
2023-04-29T02:17:29.411Z,99.90
2023-04-29T02:19:56.144Z,99.90
2023-04-29T02:22:23.001Z,99.90
2023-04-29T02:24:49.984Z,99.90
2023-04-29T02:27:17.077Z,99.90
2023-04-29T02:29:43.959Z,99.90
2023-04-29T02:32:10.893Z,99.90
2023-04-29T02:34:38.471Z,99.90
2023-04-29T02:37:05.360Z,99.90
2023-04-29T02:39:32.289Z,99.90
2023-04-29T02:41:59.004Z,99.90
2023-04-29T02:44:26.045Z,99.90
2023-04-29T02:46:53.302Z,99.90
2023-04-29T02:49:20.257Z,99.90
2023-04-29T02:51:49.666Z,99.90
2023-04-29T02:54:17.717Z,99.90
2023-04-29T02:56:44.760Z,99.90
2023-04-29T02:59:11.683Z,99.90
2023-04-29T03:01:38.925Z,99.90
2023-04-29T03:04:06.865Z,99.90
2023-04-29T03:06:34.186Z,99.90
2023-04-29T03:09:01.254Z,99.90
2023-04-29T03:11:28.409Z,99.90
2023-04-29T03:13:55.500Z,99.90
2023-04-29T03:16:23.286Z,99.90
2023-04-29T03:18:50.359Z,99.90
2023-04-29T03:21:18.678Z,99.90
2023-04-29T03:23:45.503Z,99.90
2023-04-29T03:26:12.406Z,99.90
2023-04-29T03:28:40.402Z,99.90
2023-04-29T03:31:07.358Z,99.90
2023-04-29T03:33:35.362Z,99.90
2023-04-29T03:36:02.949Z,99.90
2023-04-29T03:38:30.024Z,99.90
2023-04-29T03:40:56.816Z,99.90
2023-04-29T03:43:24.878Z,99.90
2023-04-29T03:45:51.805Z,99.90
2023-04-29T03:48:20.308Z,99.90
2023-04-29T03:50:47.496Z,99.90
2023-04-29T03:53:15.303Z,99.90
2023-04-29T03:55:42.138Z,99.90
2023-04-29T03:58:09.866Z,99.90
2023-04-29T04:00:36.900Z,99.90
2023-04-29T04:03:05.569Z,99.90
2023-04-29T04:05:32.948Z,99.90
2023-04-29T04:08:00.842Z,99.90
2023-04-29T04:10:30.123Z,99.90
2023-04-29T04:12:57.088Z,99.90
2023-04-29T04:15:24.412Z,99.90
2023-04-29T04:17:51.406Z,99.90
2023-04-29T04:20:18.276Z,99.90
2023-04-29T04:22:45.063Z,99.90
2023-04-29T04:25:12.024Z,99.90
2023-04-29T04:27:41.238Z,99.90
2023-04-29T04:30:10.507Z,99.90
2023-04-29T04:32:39.281Z,99.90
2023-04-29T04:35:12.474Z,99.90
2023-04-29T04:37:39.391Z,99.90
2023-04-29T04:40:07.346Z,99.90
2023-04-29T04:42:34.290Z,99.90
2023-04-29T04:45:01.449Z,99.90
2023-04-29T04:47:28.250Z,99.90
2023-04-29T04:49:55.401Z,99.90
2023-04-29T04:52:22.708Z,99.90
2023-04-29T04:54:49.790Z,99.90
2023-04-29T04:57:16.618Z,99.90
2023-04-29T04:59:43.489Z,99.90
2023-04-29T05:02:11.600Z,99.90
2023-04-29T05:04:39.561Z,99.90
2023-04-29T05:07:06.439Z,99.90
2023-04-29T05:09:35.746Z,99.90
2023-04-29T05:12:02.914Z,99.90
2023-04-29T05:14:29.766Z,99.90
2023-04-29T05:17:00.451Z,99.90
2023-04-29T05:19:27.496Z,99.90
2023-04-29T05:21:54.232Z,99.90
2023-04-29T05:24:21.204Z,99.90
2023-04-29T05:26:52.032Z,99.90
2023-04-29T05:29:21.078Z,99.90
2023-04-29T05:31:48.006Z,99.90
2023-04-29T05:34:15.202Z,99.90
2023-04-29T05:36:41.955Z,99.90
2023-04-29T05:39:10.021Z,99.90
2023-04-29T05:41:36.803Z,99.90
2023-04-29T05:44:03.754Z,99.90
2023-04-29T05:46:31.875Z,99.90
2023-04-29T05:48:58.856Z,99.90
2023-04-29T05:51:26.159Z,99.90
2023-04-29T05:53:59.456Z,99.90
2023-04-29T05:56:28.376Z,99.90
2023-04-29T05:58:59.499Z,99.90
2023-04-29T06:01:32.992Z,99.90
2023-04-29T06:03:59.987Z,99.90
2023-04-29T06:06:27.277Z,99.90
2023-04-29T06:09:01.067Z,99.90
2023-04-29T06:11:28.141Z,99.90
2023-04-29T06:13:56.220Z,99.90
2023-04-29T06:16:25.487Z,99.90
2023-04-29T06:18:53.603Z,99.90
2023-04-29T06:21:22.533Z,99.90
2023-04-29T06:23:51.607Z,99.90
2023-04-29T06:26:20.975Z,99.90
2023-04-29T06:28:50.257Z,99.90
2023-04-29T06:31:17.489Z,99.90
2023-04-29T06:33:44.486Z,99.90
2023-04-29T06:36:11.194Z,99.90
2023-04-29T06:38:38.376Z,99.90
2023-04-29T06:41:08.262Z,99.90
2023-04-29T06:43:35.074Z,99.90
2023-04-29T06:46:09.963Z,99.90
2023-04-29T06:48:55.267Z,99.90
2023-04-29T06:51:22.052Z,99.90
2023-04-29T06:53:49.266Z,99.90
2023-04-29T06:56:17.146Z,99.90
2023-04-29T06:58:45.401Z,99.90
2023-04-29T07:01:14.338Z,99.90
2023-04-29T07:03:41.227Z,99.90
2023-04-29T07:06:10.305Z,99.90
2023-04-29T07:08:37.277Z,99.90
2023-04-29T07:11:04.482Z,99.90
2023-04-29T07:13:32.369Z,99.90
2023-04-29T07:15:59.439Z,99.90
2023-04-29T07:18:26.328Z,99.90
2023-04-29T07:20:53.532Z,99.90
2023-04-29T07:23:20.680Z,99.90
2023-04-29T07:25:47.891Z,99.90
2023-04-29T07:28:17.265Z,99.90
2023-04-29T07:30:44.348Z,99.90
2023-04-29T07:33:12.277Z,99.90
2023-04-29T07:35:43.285Z,99.90
2023-04-29T07:38:10.402Z,99.90
2023-04-29T07:40:45.190Z,99.90
2023-04-29T07:43:14.097Z,99.90
2023-04-29T07:45:46.684Z,99.90
2023-04-29T07:48:13.637Z,99.90
2023-04-29T07:50:40.458Z,99.90
2023-04-29T07:53:07.469Z,99.90
2023-04-29T07:55:37.900Z,99.90
2023-04-29T07:58:05.021Z,99.90
2023-04-29T08:00:34.179Z,99.90
2023-04-29T08:03:01.230Z,99.90
2023-04-29T08:05:31.922Z,99.90
2023-04-29T08:07:59.286Z,99.90
2023-04-29T08:10:28.394Z,99.90
2023-04-29T08:12:56.144Z,99.90
2023-04-29T08:15:25.164Z,99.90
2023-04-29T08:17:52.107Z,99.90
2023-04-29T08:20:20.146Z,99.90
2023-04-29T08:22:47.262Z,99.90
2023-04-29T08:25:14.239Z,99.90
2023-04-29T08:27:43.657Z,99.90
2023-04-29T08:30:10.954Z,99.90
2023-04-29T08:32:39.976Z,99.90
2023-04-29T08:35:07.708Z,99.90
2023-04-29T08:37:34.444Z,99.90
2023-04-29T08:40:01.935Z,99.90
2023-04-29T08:42:38.093Z,99.90
2023-04-29T08:45:05.607Z,99.90
2023-04-29T08:47:33.761Z,99.90
2023-04-29T08:50:05.331Z,99.90
2023-04-29T08:52:32.968Z,99.90
2023-04-29T08:55:02.564Z,99.90
2023-04-29T08:57:39.498Z,99.90
2023-04-29T09:00:10.251Z,99.90
2023-04-29T09:02:46.250Z,99.90
2023-04-29T09:05:13.332Z,99.90
2023-04-29T09:07:41.738Z,99.90
2023-04-29T09:10:09.497Z,99.90
2023-04-29T09:12:36.912Z,99.90
2023-04-29T09:15:04.503Z,99.90
2023-04-29T09:17:42.193Z,99.90
2023-04-29T09:20:28.037Z,99.90
2023-04-29T09:23:01.873Z,99.90
2023-04-29T09:25:29.244Z,99.90
2023-04-29T09:27:56.170Z,99.90
2023-04-29T09:30:23.603Z,99.90
2023-04-29T09:33:10.161Z,99.90
2023-04-29T09:35:40.417Z,99.90
2023-04-29T09:38:12.983Z,99.90
2023-04-29T09:40:57.428Z,99.90
2023-04-29T09:43:25.020Z,99.90
2023-04-29T09:45:51.950Z,99.90
2023-04-29T09:48:18.869Z,99.90
2023-04-29T09:51:02.357Z,99.90
2023-04-29T09:53:31.603Z,99.90
2023-04-29T09:56:03.931Z,99.90
2023-04-29T09:58:38.098Z,99.90
2023-04-29T10:01:06.409Z,99.90
2023-04-29T10:03:38.652Z,99.90
2023-04-29T10:06:07.211Z,99.90
2023-04-29T10:08:35.771Z,99.90
2023-04-29T10:11:04.253Z,99.90
2023-04-29T10:13:33.170Z,99.90
2023-04-29T10:16:14.265Z,99.90
2023-04-29T10:18:44.879Z,99.90
2023-04-29T10:21:12.920Z,99.90
2023-04-29T10:23:42.005Z,99.90
2023-04-29T10:26:13.502Z,99.90
2023-04-29T10:28:42.217Z,99.90
2023-04-29T10:31:09.553Z,99.90
2023-04-29T10:33:37.490Z,99.90
2023-04-29T10:36:04.969Z,99.90
2023-04-29T10:38:36.630Z,99.90
2023-04-29T10:41:28.367Z,99.90
2023-04-29T10:43:56.166Z,99.90
2023-04-29T10:46:24.535Z,99.90
2023-04-29T10:48:56.407Z,99.90
2023-04-29T10:51:33.286Z,99.90
2023-04-29T10:54:08.288Z,99.90
2023-04-29T10:56:38.399Z,99.90
2023-04-29T10:59:05.529Z,99.90
2023-04-29T11:01:54.839Z,99.90
2023-04-29T11:04:22.990Z,99.20
2023-04-29T11:06:55.058Z,98.60
2023-04-29T11:09:26.620Z,98.70
2023-04-29T11:11:58.356Z,99.10
2023-04-29T11:14:30.076Z,99.00
2023-04-29T11:17:03.164Z,98.70
2023-04-29T11:19:41.562Z,98.60
2023-04-29T11:22:17.650Z,98.60
2023-04-29T11:24:58.317Z,98.60
2023-04-29T11:27:27.041Z,97.80
2023-04-29T11:29:59.084Z,97.90
2023-04-29T11:32:31.063Z,97.50
2023-04-29T11:35:18.149Z,97.60
2023-04-29T11:37:46.974Z,97.60
2023-04-29T11:40:14.774Z,97.20
2023-04-29T11:42:46.646Z,97.30
2023-04-29T11:45:13.811Z,97.00
2023-04-29T11:47:47.295Z,97.00
2023-04-29T11:50:17.909Z,96.80
2023-04-29T11:52:46.870Z,96.40
2023-04-29T11:55:14.689Z,95.70
2023-04-29T11:57:41.793Z,94.20
2023-04-29T12:00:14.807Z,92.90
2023-04-29T12:02:46.377Z,91.70
2023-04-29T12:05:15.287Z,90.80
2023-04-29T12:07:43.262Z,90.00
2023-04-29T12:10:11.174Z,88.90
2023-04-29T12:12:43.665Z,87.70
2023-04-29T12:15:10.959Z,86.60
2023-04-29T12:17:38.710Z,85.10
2023-04-29T12:20:07.684Z,83.20
2023-04-29T12:22:35.198Z,82.20
2023-04-29T12:25:07.850Z,82.00
2023-04-29T12:27:36.503Z,81.90
2023-04-29T12:30:08.256Z,83.10
2023-04-29T12:32:35.570Z,84.50
2023-04-29T12:35:02.494Z,85.50
2023-04-29T12:37:29.598Z,86.50
2023-04-29T12:39:57.384Z,86.80
2023-04-29T12:42:24.355Z,86.90
2023-04-29T12:44:51.354Z,86.60
2023-04-29T12:47:18.709Z,86.50
2023-04-29T12:49:48.126Z,86.50
2023-04-29T12:52:16.052Z,86.10
2023-04-29T12:54:44.380Z,85.50
2023-04-29T12:57:12.408Z,84.60
2023-04-29T12:59:41.517Z,83.50
2023-04-29T13:02:08.691Z,82.20
2023-04-29T13:04:35.881Z,80.20
2023-04-29T13:07:04.364Z,79.10
2023-04-29T13:09:32.213Z,77.80
2023-04-29T13:11:59.657Z,75.30
2023-04-29T13:14:27.010Z,75.20
2023-04-29T13:16:54.134Z,75.40
2023-04-29T13:19:30.541Z,75.30
2023-04-29T13:22:06.768Z,75.50
2023-04-29T13:24:35.928Z,76.20
2023-04-29T13:27:05.983Z,76.90
2023-04-29T13:29:33.025Z,77.20
2023-04-29T13:31:59.931Z,77.00
2023-04-29T13:34:26.946Z,76.90
2023-04-29T13:36:53.689Z,75.80
2023-04-29T13:39:23.097Z,76.00
2023-04-29T13:41:50.167Z,76.40
2023-04-29T13:44:27.339Z,77.80
2023-04-29T13:47:01.538Z,78.00
2023-04-29T13:50:01.888Z,79.00
2023-04-29T13:53:07.191Z,80.60
2023-04-29T14:00:19.336Z,84.00
2023-04-29T14:05:21.175Z,85.20
2023-04-29T14:07:48.277Z,86.10
2023-04-29T14:10:15.952Z,86.00
2023-04-29T14:12:42.725Z,86.90
2023-04-29T14:15:10.109Z,87.50
2023-04-29T14:17:37.296Z,88.10
2023-04-29T14:20:04.545Z,88.80
2023-04-29T14:22:31.293Z,89.20
2023-04-29T14:24:58.119Z,90.00
2023-04-29T14:27:25.025Z,90.20
2023-04-29T14:29:51.809Z,90.10
2023-04-29T14:32:18.698Z,90.00
2023-04-29T14:34:45.937Z,90.00
2023-04-29T14:37:12.926Z,90.10
2023-04-29T14:39:39.891Z,90.00
2023-04-29T14:42:06.902Z,90.00
2023-04-29T14:44:34.048Z,90.10
2023-04-29T14:47:00.956Z,90.20
2023-04-29T14:49:29.519Z,90.00
2023-04-29T14:51:58.052Z,90.20
2023-04-29T14:54:27.104Z,90.30
2023-04-29T14:56:54.244Z,90.40
2023-04-29T14:59:21.122Z,90.40
2023-04-29T15:01:48.801Z,90.60
2023-04-29T15:04:16.135Z,90.50
2023-04-29T15:06:43.544Z,90.80
2023-04-29T15:09:10.599Z,90.90
2023-04-29T15:11:37.504Z,90.90
2023-04-29T15:14:04.557Z,91.20
2023-04-29T15:16:31.708Z,91.20
2023-04-29T15:18:59.296Z,91.20
2023-04-29T15:21:27.134Z,91.30
2023-04-29T15:23:54.197Z,91.40
2023-04-29T15:26:21.909Z,91.40
2023-04-29T15:28:49.140Z,91.40
2023-04-29T15:31:16.073Z,91.40
2023-04-29T15:33:43.469Z,91.60
2023-04-29T15:36:10.743Z,91.90
2023-04-29T15:38:37.552Z,91.90
2023-04-29T15:41:05.678Z,92.10
2023-04-29T15:43:33.458Z,92.10
2023-04-29T15:46:00.732Z,93.20
2023-04-29T15:48:28.612Z,93.70
2023-04-29T15:50:55.404Z,94.20
2023-04-29T15:53:23.298Z,94.60
2023-04-29T15:55:50.591Z,94.80
2023-04-29T15:58:17.575Z,95.20
2023-04-29T16:00:44.316Z,95.50
2023-04-29T16:03:11.348Z,95.70
2023-04-29T16:05:38.741Z,95.80
2023-04-29T16:08:05.913Z,96.00
2023-04-29T16:10:32.796Z,96.20
2023-04-29T16:12:59.908Z,96.40
2023-04-29T16:15:27.748Z,96.40
2023-04-29T16:17:55.089Z,96.50
2023-04-29T16:20:22.427Z,96.40
2023-04-29T16:22:50.276Z,96.60
2023-04-29T16:25:17.571Z,96.60
2023-04-29T16:27:44.422Z,96.60
2023-04-29T16:30:11.670Z,96.80
2023-04-29T16:32:38.625Z,97.00
2023-04-29T16:35:05.721Z,97.00
2023-04-29T16:37:32.818Z,97.00
2023-04-29T16:40:00.399Z,97.20
2023-04-29T16:42:27.350Z,97.40
2023-04-29T16:44:54.190Z,97.60
2023-04-29T16:47:21.672Z,97.80
2023-04-29T16:49:48.486Z,98.00
2023-04-29T16:52:15.438Z,98.20
2023-04-29T16:54:42.546Z,98.30
2023-04-29T16:57:09.327Z,98.60
2023-04-29T16:59:36.161Z,98.70
2023-04-29T17:02:03.205Z,98.80
2023-04-29T17:04:33.497Z,99.00
2023-04-29T17:07:01.602Z,99.20
2023-04-29T17:09:28.527Z,99.40
2023-04-29T17:11:55.355Z,99.70
2023-04-29T17:14:22.395Z,99.90
2023-04-29T17:16:49.383Z,99.90
2023-04-29T17:19:16.791Z,99.90
2023-04-29T17:21:43.736Z,99.90
2023-04-29T17:24:10.836Z,99.90
2023-04-29T17:26:37.646Z,99.90
2023-04-29T17:29:04.457Z,99.90
2023-04-29T17:31:45.002Z,99.90
2023-04-29T17:34:19.796Z,99.90
2023-04-29T17:36:47.657Z,99.90
2023-04-29T17:39:14.907Z,99.90
2023-04-29T17:41:42.171Z,99.90
2023-04-29T17:44:09.716Z,99.90
2023-04-29T17:46:37.305Z,99.90
2023-04-29T17:49:04.745Z,99.90
2023-04-29T17:51:34.780Z,99.90
2023-04-29T17:54:04.734Z,99.90
2023-04-29T17:56:35.290Z,99.90
2023-04-29T17:59:03.667Z,99.90
2023-04-29T18:01:30.793Z,99.90
2023-04-29T18:03:57.830Z,99.90
2023-04-29T18:06:24.924Z,99.90
2023-04-29T18:08:52.028Z,99.90
2023-04-29T18:11:18.943Z,99.90
2023-04-29T18:13:45.718Z,99.90
2023-04-29T18:16:12.600Z,99.90
2023-04-29T18:18:39.716Z,99.90
2023-04-29T18:21:06.778Z,99.90
2023-04-29T18:23:33.712Z,99.90
2023-04-29T18:26:00.707Z,99.90
2023-04-29T18:28:29.281Z,99.90
2023-04-29T18:30:57.058Z,99.90
2023-04-29T18:33:25.288Z,99.90
2023-04-29T18:35:52.433Z,99.90
2023-04-29T18:38:19.386Z,99.90
2023-04-29T18:40:46.367Z,99.90
2023-04-29T18:43:17.146Z,99.90
2023-04-29T18:45:47.044Z,99.90
2023-04-29T18:48:15.131Z,99.90
2023-04-29T18:50:42.501Z,99.90
2023-04-29T18:53:09.542Z,99.90
2023-04-29T18:55:36.532Z,99.90
2023-04-29T18:58:03.409Z,99.90
2023-04-29T19:00:30.506Z,99.90
2023-04-29T19:02:58.351Z,99.90
2023-04-29T19:05:25.121Z,99.90
2023-04-29T19:07:51.942Z,99.90
2023-04-29T19:10:19.002Z,99.90
2023-04-29T19:12:46.311Z,99.90
2023-04-29T19:15:13.376Z,99.90
2023-04-29T19:17:40.314Z,99.90
2023-04-29T19:20:08.122Z,99.90
2023-04-29T19:22:35.401Z,99.90
2023-04-29T19:25:02.718Z,99.90
2023-04-29T19:27:29.564Z,99.90
2023-04-29T19:29:56.576Z,99.90
2023-04-29T19:32:23.596Z,99.90
2023-04-29T19:34:50.835Z,99.90
2023-04-29T19:37:17.607Z,99.90
2023-04-29T19:39:44.549Z,99.90
2023-04-29T19:42:12.470Z,99.90
2023-04-29T19:44:39.410Z,99.90
2023-04-29T19:47:06.327Z,99.90
2023-04-29T19:49:33.934Z,99.90
2023-04-29T19:52:02.122Z,99.90
2023-04-29T19:54:29.222Z,99.90
2023-04-29T19:56:56.208Z,99.90
2023-04-29T19:59:23.254Z,99.90
2023-04-29T20:01:51.445Z,99.90
2023-04-29T20:04:18.522Z,99.90
2023-04-29T20:06:46.153Z,99.90
2023-04-29T20:09:14.898Z,99.90
2023-04-29T20:11:41.717Z,99.90
2023-04-29T20:14:09.550Z,99.90
2023-04-29T20:16:36.582Z,99.90
2023-04-29T20:19:03.437Z,99.90
2023-04-29T20:21:30.262Z,99.90
2023-04-29T20:23:57.186Z,99.90
2023-04-29T20:26:24.089Z,99.90
2023-04-29T20:28:50.900Z,99.90
2023-04-29T20:31:17.760Z,99.90
2023-04-29T20:33:44.565Z,99.90
2023-04-29T20:36:11.367Z,99.90
2023-04-29T20:38:38.268Z,99.90
2023-04-29T20:41:08.376Z,99.90
2023-04-29T20:43:35.416Z,99.90
2023-04-29T20:46:03.056Z,99.90
2023-04-29T20:48:30.004Z,99.90
2023-04-29T20:50:56.786Z,99.90
2023-04-29T20:53:23.642Z,99.90
2023-04-29T20:55:50.516Z,99.90
2023-04-29T20:58:17.525Z,99.90
2023-04-29T21:00:45.123Z,99.90
2023-04-29T21:03:12.032Z,99.90
2023-04-29T21:05:39.159Z,99.90
2023-04-29T21:08:06.197Z,99.90
2023-04-29T21:10:33.101Z,99.90
2023-04-29T21:12:59.993Z,99.90
2023-04-29T21:15:29.201Z,99.90
2023-04-29T21:17:56.737Z,99.90
2023-04-29T21:20:24.012Z,99.90
2023-04-29T21:22:51.006Z,99.90
2023-04-29T21:25:18.097Z,99.90
2023-04-29T21:27:45.081Z,99.90
2023-04-29T21:30:12.366Z,99.90
2023-04-29T21:32:39.466Z,99.90
2023-04-29T21:35:06.777Z,99.90
2023-04-29T21:37:34.051Z,99.90
2023-04-29T21:40:00.953Z,99.90
2023-04-29T21:42:28.207Z,99.90
2023-04-29T21:45:00.417Z,99.90
2023-04-29T21:47:29.371Z,99.90
2023-04-29T21:49:57.201Z,99.90
2023-04-29T21:52:24.515Z,99.90
2023-04-29T21:54:51.712Z,99.90
2023-04-29T21:57:21.984Z,99.90
2023-04-29T21:59:53.522Z,99.90
2023-04-29T22:02:25.484Z,99.90
2023-04-29T22:04:53.680Z,99.90
2023-04-29T22:07:22.383Z,99.90
2023-04-29T22:09:49.815Z,99.90
2023-04-29T22:12:18.778Z,99.90
2023-04-29T22:14:46.525Z,99.90
2023-04-29T22:17:14.271Z,99.90
2023-04-29T22:19:41.340Z,99.90
2023-04-29T22:22:08.874Z,99.90
2023-04-29T22:24:35.914Z,99.90
2023-04-29T22:27:03.716Z,99.90
2023-04-29T22:29:30.556Z,99.90
2023-04-29T22:31:57.497Z,99.90
2023-04-29T22:34:24.602Z,99.90
2023-04-29T22:36:51.375Z,99.90
2023-04-29T22:39:18.725Z,99.90
2023-04-29T22:41:45.709Z,99.90
2023-04-29T22:44:12.673Z,99.90
2023-04-29T22:46:40.600Z,99.90
2023-04-29T22:49:08.741Z,99.90
2023-04-29T22:51:35.524Z,99.90
2023-04-29T22:54:02.327Z,99.90
2023-04-29T22:56:29.195Z,99.90
2023-04-29T22:58:56.083Z,99.90
2023-04-29T23:01:23.063Z,99.90
2023-04-29T23:03:49.972Z,99.90
2023-04-29T23:06:17.068Z,99.90
2023-04-29T23:08:47.149Z,99.90
2023-04-29T23:11:13.892Z,99.90
2023-04-29T23:13:40.833Z,99.90
2023-04-29T23:16:10.614Z,99.90
2023-04-29T23:18:37.857Z,99.90
2023-04-29T23:21:04.894Z,99.90
2023-04-29T23:23:31.771Z,99.90
2023-04-29T23:25:58.794Z,99.90
2023-04-29T23:28:25.941Z,99.90
2023-04-29T23:30:53.341Z,99.90
2023-04-29T23:33:20.449Z,99.90
2023-04-29T23:35:53.857Z,99.90
2023-04-29T23:38:20.722Z,99.90
2023-04-29T23:40:47.697Z,99.90
2023-04-29T23:43:18.235Z,99.90
2023-04-29T23:45:46.133Z,99.90
2023-04-29T23:48:13.985Z,99.90
2023-04-29T23:50:40.840Z,99.90
2023-04-29T23:53:07.888Z,99.90
2023-04-29T23:55:34.754Z,99.90
2023-04-29T23:58:01.665Z,99.90
